createdAt,value
2017-12-16T00:01:51.101Z,27.90
2017-12-16T00:04:17.372Z,25.48
2017-12-16T00:06:43.722Z,25.50
2017-12-16T00:09:10.034Z,25.95
2017-12-16T00:11:36.313Z,24.73
2017-12-16T00:14:03.306Z,26.85
2017-12-16T00:16:30.285Z,25.02
2017-12-16T00:18:56.603Z,26.10
2017-12-16T00:21:22.916Z,29.45
2017-12-16T00:23:52.653Z,28.90
2017-12-16T00:26:18.905Z,26.23
2017-12-16T00:28:45.165Z,30.45
2017-12-16T00:31:11.470Z,33.78
2017-12-16T00:33:37.766Z,26.50
2017-12-16T00:36:04.075Z,25.23
2017-12-16T00:38:30.362Z,23.25
2017-12-16T00:40:59.284Z,21.62
2017-12-16T00:43:25.591Z,24.42
2017-12-16T00:45:52.661Z,21.75
2017-12-16T00:48:22.752Z,22.15
2017-12-16T00:50:49.042Z,20.52
2017-12-16T00:53:16.072Z,24.08
2017-12-16T00:55:42.358Z,23.08
2017-12-16T00:58:08.642Z,24.52
2017-12-16T01:00:34.925Z,27.62
2017-12-16T01:03:01.215Z,24.15
2017-12-16T01:05:27.536Z,28.05
2017-12-16T01:07:53.829Z,26.08
2017-12-16T01:10:20.117Z,24.67
2017-12-16T01:12:47.117Z,30.10
2017-12-16T01:15:13.433Z,21.90
2017-12-16T01:17:40.522Z,24.65
2017-12-16T01:20:07.537Z,24.75
2017-12-16T01:22:34.708Z,29.12
2017-12-16T01:25:00.969Z,24.23
2017-12-16T01:27:27.334Z,27.40
2017-12-16T01:29:53.649Z,24.80
2017-12-16T01:32:19.905Z,28.38
2017-12-16T01:34:58.521Z,30.48
2017-12-16T01:37:37.120Z,27.27
2017-12-16T01:40:03.479Z,24.95
2017-12-16T01:42:30.357Z,27.45
2017-12-16T01:44:56.635Z,25.33
2017-12-16T01:47:22.925Z,27.60
2017-12-16T01:49:49.202Z,26.05
2017-12-16T01:52:15.481Z,28.87
2017-12-16T01:54:42.136Z,29.00
2017-12-16T01:57:09.146Z,26.48
2017-12-16T01:59:35.469Z,29.83
2017-12-16T02:02:01.738Z,35.97
2017-12-16T02:04:28.012Z,30.95
2017-12-16T02:06:55.417Z,29.60
2017-12-16T02:09:21.816Z,33.53
2017-12-16T02:11:48.141Z,28.30
2017-12-16T02:14:15.179Z,29.48
2017-12-16T02:16:41.437Z,31.92
2017-12-16T02:19:07.745Z,35.00
2017-12-16T02:21:34.742Z,27.95
2017-12-16T02:24:01.061Z,30.92
2017-12-16T02:26:27.341Z,31.48
2017-12-16T02:28:53.626Z,31.73
2017-12-16T02:31:19.950Z,29.95
2017-12-16T02:33:46.246Z,33.83
2017-12-16T02:36:12.518Z,29.48
2017-12-16T02:38:38.801Z,33.42
2017-12-16T02:41:05.798Z,31.00
2017-12-16T02:43:32.065Z,31.55
2017-12-16T02:45:58.337Z,36.28
2017-12-16T02:48:24.615Z,33.55
2017-12-16T02:50:50.896Z,33.03
2017-12-16T02:53:17.901Z,36.80
2017-12-16T02:55:44.164Z,32.13
2017-12-16T02:58:10.465Z,32.78
2017-12-16T03:00:36.793Z,33.20
2017-12-16T03:03:03.825Z,44.03
2017-12-16T03:05:30.089Z,33.53
2017-12-16T03:07:57.106Z,32.28
2017-12-16T03:10:23.365Z,36.95
2017-12-16T03:12:49.718Z,36.30
2017-12-16T03:15:16.736Z,32.88
2017-12-16T03:17:43.021Z,38.22
2017-12-16T03:20:09.270Z,33.00
2017-12-16T03:22:35.554Z,30.67
2017-12-16T03:25:01.880Z,35.67
2017-12-16T03:27:28.157Z,36.28
2017-12-16T03:29:54.405Z,32.55
2017-12-16T03:32:20.706Z,36.88
2017-12-16T03:34:47.685Z,37.85
2017-12-16T03:37:13.962Z,30.90
2017-12-16T03:39:40.231Z,41.28
2017-12-16T03:42:07.214Z,36.42
2017-12-16T03:44:33.469Z,34.33
2017-12-16T03:46:59.734Z,41.03
2017-12-16T03:49:25.994Z,40.05
2017-12-16T03:51:52.994Z,42.40
2017-12-16T03:54:19.471Z,39.08
2017-12-16T03:56:45.759Z,40.75
2017-12-16T03:59:11.914Z,40.88
2017-12-16T04:01:38.069Z,44.88
2017-12-16T04:04:04.113Z,39.65
2017-12-16T04:06:30.174Z,41.45
2017-12-16T04:08:56.245Z,41.17
2017-12-16T04:11:22.318Z,38.05
2017-12-16T04:13:49.173Z,36.03
2017-12-16T04:16:15.254Z,46.45
2017-12-16T04:18:42.058Z,39.35
2017-12-16T04:21:08.302Z,36.97
2017-12-16T04:23:34.357Z,39.47
2017-12-16T04:26:00.413Z,44.50
2017-12-16T04:28:26.546Z,45.10
2017-12-16T04:30:52.612Z,46.67
2017-12-16T04:33:18.713Z,37.25
2017-12-16T04:35:44.771Z,44.05
2017-12-16T04:38:11.598Z,48.45
2017-12-16T04:40:37.698Z,40.30
2017-12-16T04:43:06.799Z,47.92
2017-12-16T04:45:32.853Z,42.35
2017-12-16T04:47:58.916Z,45.70
2017-12-16T04:50:24.981Z,42.15
2017-12-16T04:52:51.046Z,49.35
2017-12-16T04:55:17.633Z,46.80
2017-12-16T04:57:43.689Z,44.92
2017-12-16T05:00:10.702Z,46.28
2017-12-16T05:02:36.803Z,49.65
2017-12-16T05:05:02.863Z,48.13
2017-12-16T05:07:29.689Z,62.35
2017-12-16T05:09:55.737Z,46.85
2017-12-16T05:12:23.911Z,54.88
2017-12-16T05:14:49.998Z,60.20
2017-12-16T05:17:16.790Z,50.45
2017-12-16T05:19:42.870Z,43.70
2017-12-16T05:22:08.930Z,49.00
2017-12-16T05:24:35.742Z,44.92
2017-12-16T05:27:01.834Z,48.40
2017-12-16T05:29:27.884Z,41.10
2017-12-16T05:31:53.978Z,49.15
2017-12-16T05:34:20.042Z,47.05
2017-12-16T05:36:46.118Z,48.33
2017-12-16T05:39:12.180Z,45.12
2017-12-16T05:41:38.233Z,47.33
2017-12-16T05:44:05.040Z,47.83
2017-12-16T05:46:31.112Z,45.55
2017-12-16T05:48:57.173Z,42.05
2017-12-16T05:51:24.009Z,39.35
2017-12-16T05:53:50.101Z,35.97
2017-12-16T05:56:16.169Z,34.92
2017-12-16T05:58:42.237Z,34.83
2017-12-16T06:01:09.033Z,35.85
2017-12-16T06:03:35.097Z,35.92
2017-12-16T06:06:01.155Z,35.47
2017-12-16T06:08:27.217Z,40.10
2017-12-16T06:10:54.020Z,33.40
2017-12-16T06:13:20.086Z,37.55
2017-12-16T06:15:46.901Z,36.20
2017-12-16T06:18:12.986Z,36.55
2017-12-16T06:20:39.793Z,40.42
2017-12-16T06:23:05.866Z,37.17
2017-12-16T06:25:31.937Z,36.92
2017-12-16T06:27:58.017Z,31.33
2017-12-16T06:30:24.426Z,41.72
2017-12-16T06:32:50.527Z,36.40
2017-12-16T06:35:16.709Z,36.88
2017-12-16T06:37:42.769Z,36.15
2017-12-16T06:40:08.838Z,39.28
2017-12-16T06:42:34.903Z,37.15
2017-12-16T06:45:00.970Z,47.15
2017-12-16T06:47:27.030Z,33.10
2017-12-16T06:49:53.106Z,39.83
2017-12-16T06:52:19.898Z,37.30
2017-12-16T06:54:45.963Z,40.08
2017-12-16T06:57:12.074Z,42.67
2017-12-16T06:59:38.157Z,37.08
2017-12-16T07:02:04.229Z,40.10
2017-12-16T07:04:30.292Z,38.85
2017-12-16T07:06:56.365Z,43.85
2017-12-16T07:09:22.424Z,48.87
2017-12-16T07:11:49.251Z,42.97
2017-12-16T07:14:15.320Z,51.92
2017-12-16T07:16:42.124Z,47.00
2017-12-16T07:19:08.270Z,50.38
2017-12-16T07:21:34.359Z,51.17
2017-12-16T07:24:01.161Z,50.80
2017-12-16T07:26:27.228Z,46.78
2017-12-16T07:28:54.034Z,52.20
2017-12-16T07:31:20.094Z,53.90
2017-12-16T07:33:46.149Z,50.33
2017-12-16T07:36:12.217Z,47.30
2017-12-16T07:38:39.062Z,58.72
2017-12-16T07:41:05.925Z,50.00
2017-12-16T07:43:32.729Z,54.22
2017-12-16T07:45:58.790Z,51.90
2017-12-16T07:48:24.888Z,59.00
2017-12-16T07:50:50.977Z,61.05
2017-12-16T07:53:17.115Z,53.38
2017-12-16T07:55:43.169Z,59.05
2017-12-16T07:58:10.718Z,52.17
2017-12-16T08:00:36.801Z,64.18
2017-12-16T08:03:02.874Z,54.45
2017-12-16T08:05:28.978Z,59.70
2017-12-16T08:07:55.042Z,57.60
2017-12-16T08:10:21.138Z,59.92
2017-12-16T08:12:47.294Z,54.08
2017-12-16T08:15:13.372Z,59.25
2017-12-16T08:17:39.439Z,52.95
2017-12-16T08:20:06.253Z,56.58
2017-12-16T08:22:32.625Z,58.45
2017-12-16T08:24:58.697Z,66.43
2017-12-16T08:27:24.874Z,52.25
2017-12-16T08:29:54.665Z,53.75
2017-12-16T08:32:20.716Z,58.72
2017-12-16T08:34:46.769Z,57.72
2017-12-16T08:37:12.824Z,54.72
2017-12-16T08:39:38.918Z,60.00
2017-12-16T08:42:05.161Z,61.40
2017-12-16T08:44:31.217Z,55.95
2017-12-16T08:46:57.300Z,52.90
2017-12-16T08:49:24.123Z,60.72
2017-12-16T08:51:50.939Z,55.10
2017-12-16T08:54:17.084Z,56.50
2017-12-16T08:56:43.155Z,60.10
2017-12-16T08:59:10.498Z,48.55
2017-12-16T09:01:36.586Z,65.75
2017-12-16T09:04:05.216Z,53.60
2017-12-16T09:06:31.400Z,57.10
2017-12-16T09:08:57.783Z,52.55
2017-12-16T09:11:24.594Z,50.85
2017-12-16T09:13:50.669Z,60.00
2017-12-16T09:16:17.480Z,50.65
2017-12-16T09:18:43.547Z,48.05
2017-12-16T09:21:09.614Z,51.33
2017-12-16T09:23:35.683Z,45.72
2017-12-16T09:26:01.785Z,43.78
2017-12-16T09:28:28.572Z,41.85
2017-12-16T09:30:54.629Z,44.35
2017-12-16T09:33:20.689Z,43.28
2017-12-16T09:35:47.513Z,42.13
2017-12-16T09:38:13.556Z,47.40
2017-12-16T09:40:39.626Z,43.00
2017-12-16T09:43:06.426Z,43.15
2017-12-16T09:45:32.475Z,38.05
2017-12-16T09:47:58.605Z,38.35
2017-12-16T09:50:24.696Z,41.80
2017-12-16T09:52:51.582Z,37.28
2017-12-16T09:55:17.682Z,36.53
2017-12-16T09:57:44.479Z,33.60
2017-12-16T10:00:10.529Z,36.88
2017-12-16T10:02:36.661Z,37.80
2017-12-16T10:05:02.781Z,31.73
2017-12-16T10:07:28.841Z,32.90
2017-12-16T10:09:54.948Z,41.72
2017-12-16T10:12:21.758Z,40.83
2017-12-16T10:14:51.429Z,31.58
2017-12-16T10:17:17.516Z,23.67
2017-12-16T10:19:43.600Z,25.17
2017-12-16T10:22:10.393Z,26.58
2017-12-16T10:24:36.448Z,28.15
2017-12-16T10:27:02.532Z,25.42
2017-12-16T10:29:28.639Z,31.40
2017-12-16T10:31:54.708Z,26.85
2017-12-16T10:34:21.524Z,24.40
2017-12-16T10:36:47.576Z,25.02
2017-12-16T10:39:13.661Z,24.50
2017-12-16T10:41:40.453Z,21.20
2017-12-16T10:44:06.512Z,23.80
2017-12-16T10:46:32.574Z,21.40
2017-12-16T10:48:58.616Z,21.67
2017-12-16T10:51:24.684Z,24.42
2017-12-16T10:53:50.751Z,27.55
2017-12-16T10:56:16.817Z,22.87
2017-12-16T10:58:42.866Z,18.08
2017-12-16T11:01:08.989Z,23.67
2017-12-16T11:03:35.681Z,17.67
2017-12-16T11:06:02.845Z,20.20
2017-12-16T11:08:28.944Z,19.83
2017-12-16T11:10:55.062Z,17.30
2017-12-16T11:13:21.130Z,18.67
2017-12-16T11:15:48.005Z,20.50
2017-12-16T11:18:14.206Z,15.40
2017-12-16T11:20:40.248Z,19.12
2017-12-16T11:23:06.297Z,23.62
2017-12-16T11:25:33.112Z,17.27
2017-12-16T11:27:59.173Z,22.55
2017-12-16T11:30:25.256Z,10.52
2017-12-16T11:32:51.322Z,18.85
2017-12-16T11:35:17.395Z,19.45
2017-12-16T11:37:43.486Z,17.37
2017-12-16T11:40:09.567Z,12.73
2017-12-16T11:42:35.626Z,14.70
2017-12-16T11:45:02.486Z,17.48
2017-12-16T11:47:28.560Z,12.82
2017-12-16T11:49:54.654Z,12.95
2017-12-16T11:52:22.877Z,10.25
2017-12-16T11:54:49.123Z,9.95
2017-12-16T11:57:15.390Z,5.82
2017-12-16T11:59:41.666Z,12.77
2017-12-16T12:02:08.842Z,11.23
2017-12-16T12:04:35.872Z,11.15
2017-12-16T12:07:02.141Z,20.02
2017-12-16T12:09:28.403Z,14.30
2017-12-16T12:11:58.933Z,15.85
2017-12-16T12:14:25.182Z,9.15
2017-12-16T12:16:54.841Z,13.18
2017-12-16T12:19:21.114Z,12.00
2017-12-16T12:21:47.369Z,13.43
2017-12-16T12:24:14.485Z,10.48
2017-12-16T12:26:40.761Z,13.18
2017-12-16T12:29:07.028Z,9.98
2017-12-16T12:31:34.029Z,11.10
2017-12-16T12:34:00.311Z,7.20
2017-12-16T12:36:26.613Z,8.40
2017-12-16T12:38:52.956Z,12.55
2017-12-16T12:41:19.272Z,14.35
2017-12-16T12:43:45.549Z,13.93
2017-12-16T12:46:12.973Z,11.50
2017-12-16T12:48:39.969Z,9.15
2017-12-16T12:51:06.224Z,11.15
2017-12-16T12:53:32.464Z,13.25
2017-12-16T12:55:58.757Z,12.85
2017-12-16T12:58:24.985Z,12.07
2017-12-16T13:00:52.048Z,9.02
2017-12-16T13:03:18.349Z,11.75
2017-12-16T13:05:44.605Z,10.52
2017-12-16T13:08:10.934Z,16.27
2017-12-16T13:10:37.203Z,9.65
2017-12-16T13:13:03.501Z,9.80
2017-12-16T13:15:29.778Z,12.50
2017-12-16T13:17:56.013Z,13.55
2017-12-16T13:20:22.312Z,9.60
2017-12-16T13:22:48.766Z,8.52
2017-12-16T13:25:15.073Z,12.37
2017-12-16T13:27:42.097Z,12.80
2017-12-16T13:30:08.378Z,9.20
2017-12-16T13:32:34.658Z,9.27
2017-12-16T13:35:00.934Z,10.35
2017-12-16T13:37:28.744Z,10.02
2017-12-16T13:39:54.992Z,8.40
2017-12-16T13:42:22.123Z,7.12
2017-12-16T13:44:48.390Z,9.25
2017-12-16T13:47:14.684Z,8.15
2017-12-16T13:49:41.689Z,10.77
2017-12-16T13:52:12.828Z,9.35
2017-12-16T13:54:39.833Z,11.40
2017-12-16T13:57:06.232Z,4.78
2017-12-16T13:59:32.498Z,12.98
2017-12-16T14:01:58.764Z,9.30
2017-12-16T14:04:25.057Z,11.65
2017-12-16T14:06:57.207Z,9.48
2017-12-16T14:09:23.546Z,7.97
2017-12-16T14:11:49.845Z,10.80
2017-12-16T14:14:16.162Z,9.18
2017-12-16T14:16:42.478Z,10.52
2017-12-16T14:19:08.716Z,13.75
2017-12-16T14:21:34.984Z,9.98
2017-12-16T14:24:03.710Z,12.25
2017-12-16T14:26:32.723Z,13.55
2017-12-16T14:28:58.963Z,11.73
2017-12-16T14:31:25.214Z,10.75
2017-12-16T14:33:51.501Z,10.50
2017-12-16T14:36:17.804Z,10.40
2017-12-16T14:38:44.132Z,8.77
2017-12-16T14:41:10.537Z,7.12
2017-12-16T14:43:36.840Z,9.23
2017-12-16T14:46:03.121Z,10.57
2017-12-16T14:48:29.374Z,9.82
2017-12-16T14:50:55.619Z,9.85
2017-12-16T14:53:21.866Z,10.20
2017-12-16T14:55:48.159Z,10.23
2017-12-16T14:58:14.507Z,11.73
2017-12-16T15:00:40.765Z,5.50
2017-12-16T15:03:07.073Z,9.15
2017-12-16T15:05:34.163Z,12.32
2017-12-16T15:08:01.271Z,8.70
2017-12-16T15:10:28.135Z,8.32
2017-12-16T15:12:54.466Z,11.75
2017-12-16T15:15:20.717Z,10.32
2017-12-16T15:17:47.002Z,5.97
2017-12-16T15:20:13.257Z,12.02
2017-12-16T15:22:39.565Z,9.68
2017-12-16T15:25:05.820Z,8.18
2017-12-16T15:27:34.218Z,7.87
2017-12-16T15:30:00.533Z,12.65
2017-12-16T15:32:26.795Z,9.48
2017-12-16T15:34:53.118Z,10.05
2017-12-16T15:37:19.445Z,9.05
2017-12-16T15:39:45.787Z,14.45
2017-12-16T15:42:12.167Z,19.80
2017-12-16T15:44:40.442Z,10.95
2017-12-16T15:47:06.718Z,8.20
2017-12-16T15:49:33.010Z,12.00
2017-12-16T15:51:59.277Z,13.43
2017-12-16T15:54:25.536Z,9.68
2017-12-16T15:56:51.853Z,8.07
2017-12-16T15:59:18.836Z,6.72
2017-12-16T16:01:46.697Z,5.45
2017-12-16T16:04:13.850Z,8.82
2017-12-16T16:06:40.873Z,10.18
2017-12-16T16:09:07.135Z,9.10
2017-12-16T16:11:34.162Z,8.27
2017-12-16T16:14:00.441Z,7.37
2017-12-16T16:16:30.917Z,9.07
2017-12-16T16:18:57.167Z,10.18
2017-12-16T16:21:24.206Z,8.65
2017-12-16T16:23:50.506Z,5.35
2017-12-16T16:26:16.756Z,7.35
2017-12-16T16:28:43.039Z,7.95
2017-12-16T16:31:09.325Z,12.27
2017-12-16T16:33:40.009Z,12.48
2017-12-16T16:36:06.266Z,6.62
2017-12-16T16:38:32.565Z,7.75
2017-12-16T16:40:59.709Z,10.18
2017-12-16T16:43:26.790Z,7.82
2017-12-16T16:45:53.087Z,6.45
2017-12-16T16:48:20.106Z,8.80
2017-12-16T16:50:51.629Z,4.28
2017-12-16T16:53:18.705Z,10.02
2017-12-16T16:55:44.984Z,6.60
2017-12-16T16:58:11.288Z,13.15
2017-12-16T17:00:38.454Z,6.18
2017-12-16T17:03:04.744Z,7.60
2017-12-16T17:05:31.009Z,9.70
2017-12-16T17:07:57.305Z,6.97
2017-12-16T17:10:27.563Z,8.68
2017-12-16T17:12:53.862Z,11.05
2017-12-16T17:15:20.922Z,7.62
2017-12-16T17:17:48.031Z,7.45
2017-12-16T17:20:14.302Z,8.10
2017-12-16T17:22:40.562Z,13.35
2017-12-16T17:25:06.841Z,10.60
2017-12-16T17:27:33.847Z,10.98
2017-12-16T17:30:01.967Z,7.53
2017-12-16T17:32:28.293Z,9.63
2017-12-16T17:34:54.532Z,8.20
2017-12-16T17:37:20.820Z,7.85
2017-12-16T17:39:47.097Z,8.95
2017-12-16T17:42:14.094Z,13.15
2017-12-16T17:44:40.359Z,9.60
2017-12-16T17:47:11.697Z,14.52
2017-12-16T17:49:37.938Z,9.73
2017-12-16T17:52:04.225Z,6.53
2017-12-16T17:54:30.446Z,11.73
2017-12-16T17:56:56.707Z,14.90
2017-12-16T17:59:22.983Z,10.70
2017-12-16T18:01:49.233Z,11.48
2017-12-16T18:04:17.688Z,14.15
2017-12-16T18:06:44.065Z,11.27
2017-12-16T18:09:10.759Z,10.82
2017-12-16T18:11:37.040Z,11.57
2017-12-16T18:14:03.276Z,9.70
2017-12-16T18:16:30.259Z,6.37
2017-12-16T18:18:56.529Z,9.45
2017-12-16T18:21:22.777Z,7.28
2017-12-16T18:23:49.025Z,5.57
2017-12-16T18:26:17.361Z,8.95
2017-12-16T18:28:44.361Z,10.38
2017-12-16T18:31:11.155Z,13.23
2017-12-16T18:33:37.450Z,7.68
2017-12-16T18:36:03.741Z,7.93
2017-12-16T18:38:30.163Z,10.25
2017-12-16T18:41:03.308Z,6.90
2017-12-16T18:43:29.549Z,8.02
2017-12-16T18:45:55.912Z,11.38
2017-12-16T18:48:22.170Z,17.08
2017-12-16T18:50:48.490Z,8.52
2017-12-16T18:53:14.769Z,8.10
2017-12-16T18:55:41.765Z,9.32
2017-12-16T18:58:09.824Z,13.40
2017-12-16T19:00:36.099Z,10.07
2017-12-16T19:03:03.142Z,10.27
2017-12-16T19:05:29.544Z,9.75
2017-12-16T19:07:55.772Z,12.80
2017-12-16T19:10:22.032Z,9.70
2017-12-16T19:12:49.062Z,9.10
2017-12-16T19:15:15.338Z,8.10
2017-12-16T19:17:45.174Z,11.10
2017-12-16T19:20:11.538Z,7.80
2017-12-16T19:22:37.820Z,14.77
2017-12-16T19:25:04.095Z,8.52
2017-12-16T19:27:30.365Z,13.93
2017-12-16T19:29:57.367Z,8.68
2017-12-16T19:32:24.353Z,12.73
2017-12-16T19:34:54.044Z,10.43
2017-12-16T19:37:21.123Z,10.93
2017-12-16T19:39:47.406Z,18.25
2017-12-16T19:42:13.698Z,9.73
2017-12-16T19:44:40.034Z,9.15
2017-12-16T19:47:06.324Z,13.25
2017-12-16T19:49:32.706Z,8.23
2017-12-16T19:52:04.057Z,13.25
2017-12-16T19:54:31.094Z,13.32
2017-12-16T19:56:57.358Z,11.63
2017-12-16T19:59:23.628Z,16.40
2017-12-16T20:01:49.925Z,14.05
2017-12-16T20:04:16.897Z,14.95
2017-12-16T20:06:43.144Z,20.08
2017-12-16T20:09:17.861Z,16.25
2017-12-16T20:11:44.178Z,15.55
2017-12-16T20:14:10.453Z,16.58
2017-12-16T20:16:36.697Z,19.25
2017-12-16T20:19:03.025Z,19.10
2017-12-16T20:21:30.054Z,18.95
2017-12-16T20:23:56.328Z,20.45
2017-12-16T20:26:22.557Z,19.37
2017-12-16T20:28:52.678Z,18.48
2017-12-16T20:31:19.022Z,27.17
2017-12-16T20:33:45.281Z,23.08
2017-12-16T20:36:11.526Z,25.60
2017-12-16T20:38:37.804Z,24.52
2017-12-16T20:41:04.053Z,27.13
2017-12-16T20:43:30.464Z,29.58
2017-12-16T20:45:56.749Z,27.17
2017-12-16T20:48:27.661Z,20.70
2017-12-16T20:50:53.933Z,22.52
2017-12-16T20:53:20.309Z,24.37
2017-12-16T20:55:46.558Z,21.58
2017-12-16T20:58:12.788Z,29.23
2017-12-16T21:00:39.225Z,24.52
2017-12-16T21:03:05.493Z,19.55
2017-12-16T21:05:31.706Z,24.45
2017-12-16T21:08:04.605Z,24.37
2017-12-16T21:10:30.909Z,20.80
2017-12-16T21:12:57.169Z,25.40
2017-12-16T21:15:23.391Z,21.23
2017-12-16T21:17:49.729Z,21.05
2017-12-16T21:20:15.998Z,21.52
2017-12-16T21:22:43.017Z,20.37
2017-12-16T21:25:09.254Z,19.95
2017-12-16T21:27:38.565Z,26.90
2017-12-16T21:30:05.579Z,24.63
2017-12-16T21:32:31.829Z,21.83
2017-12-16T21:34:58.843Z,20.92
2017-12-16T21:37:25.059Z,21.48
2017-12-16T21:39:52.091Z,23.23
2017-12-16T21:42:18.329Z,24.02
2017-12-16T21:44:47.333Z,27.90
2017-12-16T21:47:13.549Z,24.02
2017-12-16T21:49:40.215Z,27.87
2017-12-16T21:52:06.480Z,25.65
2017-12-16T21:54:32.782Z,28.95
2017-12-16T21:56:59.101Z,25.65
2017-12-16T21:59:25.398Z,26.90
2017-12-16T22:01:51.642Z,33.63
2017-12-16T22:04:22.012Z,32.72
2017-12-16T22:06:49.433Z,29.45
2017-12-16T22:09:16.429Z,34.33
2017-12-16T22:11:42.661Z,34.33
2017-12-16T22:14:08.997Z,30.08
2017-12-16T22:16:35.273Z,29.25
2017-12-16T22:19:01.531Z,32.33
2017-12-16T22:21:27.787Z,35.40
2017-12-16T22:23:54.015Z,32.00
2017-12-16T22:26:20.986Z,35.05
2017-12-16T22:28:47.272Z,31.00
2017-12-16T22:31:13.498Z,35.45
2017-12-16T22:33:39.799Z,28.98
2017-12-16T22:36:06.061Z,31.48
2017-12-16T22:38:32.337Z,33.30
2017-12-16T22:40:58.612Z,34.80
2017-12-16T22:43:25.666Z,39.45
2017-12-16T22:45:52.662Z,31.98
2017-12-16T22:48:18.958Z,38.58
2017-12-16T22:50:45.249Z,42.75
2017-12-16T22:53:11.537Z,34.22
2017-12-16T22:55:38.587Z,36.83
2017-12-16T22:58:05.334Z,35.63
2017-12-16T23:00:32.566Z,40.25
2017-12-16T23:02:58.837Z,35.55
2017-12-16T23:05:25.085Z,41.30
2017-12-16T23:07:51.397Z,38.58
2017-12-16T23:10:17.651Z,40.70
2017-12-16T23:12:44.003Z,46.17
2017-12-16T23:15:10.330Z,39.83
2017-12-16T23:17:36.719Z,48.87
2017-12-16T23:20:03.009Z,42.22
2017-12-16T23:22:29.442Z,39.47
2017-12-16T23:24:57.450Z,38.17
2017-12-16T23:27:23.744Z,37.85
2017-12-16T23:29:50.147Z,41.30
2017-12-16T23:32:16.425Z,40.38
2017-12-16T23:34:43.407Z,44.70
2017-12-16T23:37:09.733Z,41.78
2017-12-16T23:39:36.023Z,47.90
2017-12-16T23:42:02.266Z,44.08
2017-12-16T23:44:28.591Z,51.17
2017-12-16T23:46:54.841Z,48.30
2017-12-16T23:49:21.085Z,46.53
2017-12-16T23:51:47.390Z,47.25
2017-12-16T23:54:13.717Z,51.72
2017-12-16T23:56:40.035Z,49.50
2017-12-16T23:59:06.327Z,55.65
